Dabneys, Virginia
Current Conditions -  °F | °C
As of 3:55 PM on Tuesday 21 Oct 2014 (Local Time) from K7W4 Reporting Station
Overcast Overcast  
Wind Chill: 64°   Ceiling: 5000
Heat Index: 64°   Visibility: 10mi
Dew Point: 49°   Wind: 6mph
Humidity: 59%   Direction: 280°W
Pressure: 29.81"   Gusts: NA
Location:  37.715°N, 77.8422°W
Report Text: K7W4 211955Z AUTO 28005KT 10SM BKN050 BKN070 OVC090 18/10 A2981 RMK AO1 T01760096
Loading
Personal Weather Stations






























Interactive Weather Map
Tropical Storm Tracking
New forecast layout! Learn more

10-Day Weather Forecast

Advertisements
Track Severe Weather on mobile